Time;durP1;ratioP1;P1;durP2;ratioP2;P2;SDS_P1;SDS_P2;PMS_P1;PMS_P2;Temp;Humidity;BMP_temperature;BMP_pressure;BME280_temperature;BME280_humidity;BME280_pressure;Samples;Min_cycle;Max_cycle;Signal;HPM_P1;HPM_P2
2022/01/22 00:01:39;;;;;;;2.65;1.10;;;;;;;-0.49;93.53;102231.75;4940077;29;20062;-87
2022/01/22 00:04:05;;;;;;;3.47;1.13;;;;;;;-0.15;93.26;102286.09;4906756;29;20032;-87
2022/01/22 00:06:30;;;;;;;4.85;1.40;;;;;;;-1.24;93.41;102125.22;4906448;29;20041;-87
2022/01/22 00:08:56;;;;;;;2.65;1.40;;;;;;;-0.96;93.62;102166.69;4923640;29;20032;-88
2022/01/22 00:11:22;;;;;;;3.22;1.27;;;;;;;-0.76;93.83;102198.09;4923698;29;20025;-87
2022/01/22 00:16:31;;;;;;;2.42;1.02;;;;;;;-0.20;94.24;102304.00;4904065;29;20085;-87
2022/01/22 00:18:57;;;;;;;2.80;1.20;;;;;;;-0.86;94.17;102209.28;4903817;29;20017;-87
2022/01/22 00:21:22;;;;;;;4.07;1.30;;;;;;;-0.92;94.29;102199.09;4919867;29;20059;-87
2022/01/22 00:26:17;;;;;;;2.50;1.30;;;;;;;-1.36;94.24;102120.66;4940322;29;20058;-86
2022/01/22 00:28:42;;;;;;;3.30;1.65;;;;;;;-0.79;94.34;102214.13;5267270;23;20042;-85
2022/01/22 00:31:08;;;;;;;4.45;1.63;;;;;;;-1.37;94.76;102124.22;5215247;23;20055;-88
2022/01/22 00:33:34;;;;;;;2.90;1.52;;;;;;;-1.18;94.71;102161.84;5358707;23;20052;-87
2022/01/22 00:35:59;;;;;;;5.28;1.90;;;;;;;-0.87;94.59;102195.22;4941796;29;20024;-87
2022/01/22 00:38:25;;;;;;;7.10;1.75;;;;;;;-0.80;94.74;102208.91;4941871;29;20132;-87
2022/01/22 00:40:51;;;;;;;4.13;1.63;;;;;;;-1.16;94.19;102164.38;4925803;29;20035;-87
2022/01/22 00:43:18;;;;;;;4.65;1.48;;;;;;;-0.23;94.12;102309.53;4925783;29;20036;-87
2022/01/22 00:45:44;;;;;;;4.93;1.90;;;;;;;-1.04;93.86;102172.44;4925732;29;20027;-87
2022/01/22 00:48:10;;;;;;;4.35;1.42;;;;;;;-0.05;94.08;102321.63;4942011;29;20028;-87
2022/01/22 00:50:35;;;;;;;4.05;1.60;;;;;;;-1.05;93.55;102154.03;4940969;29;20032;-87
2022/01/22 00:53:01;;;;;;;3.53;1.88;;;;;;;-0.68;94.15;102205.56;4940368;29;20039;-88
2022/01/22 00:55:27;;;;;;;6.65;1.70;;;;;;;-1.00;94.12;102166.00;4940690;29;20023;-87
2022/01/22 00:57:52;;;;;;;4.28;1.40;;;;;;;-0.71;93.74;102189.88;4924163;29;20020;-87
2022/01/22 01:00:18;;;;;;;3.40;1.65;;;;;;;0.06;93.89;102333.34;4924804;29;20167;-87
2022/01/22 01:02:45;;;;;;;5.30;1.30;;;;;;;-0.74;94.10;102184.75;4928013;29;20028;-87
2022/01/22 01:05:11;;;;;;;3.30;1.25;;;;;;;-0.79;93.72;102169.19;4941056;29;20039;-87
2022/01/22 01:07:37;;;;;;;5.97;1.60;;;;;;;-0.40;93.95;102219.75;4940964;29;20052;-87
2022/01/22 01:10:06;;;;;;;3.47;1.48;;;;;;;-0.84;93.94;102159.84;4941538;29;20036;-87
2022/01/22 01:12:32;;;;;;;2.72;1.25;;;;;;;-0.82;93.77;102163.25;4925169;29;20043;-87
2022/01/22 01:15:15;;;;;;;2.33;1.35;;;;;;;0.25;94.43;102331.28;4920927;29;20028;-87
2022/01/22 01:34:03;;;;;;;2.15;1.35;;;;;;;-0.04;94.72;102240.44;4920870;29;20068;-87
2022/01/22 01:36:28;;;;;;;2.88;1.40;;;;;;;-0.63;94.17;102155.91;4920627;29;20032;-86
2022/01/22 01:38:59;;;;;;;3.15;1.45;;;;;;;0.30;94.37;102300.09;4921672;29;20008;-87
2022/01/22 01:41:34;;;;;;;2.72;1.17;;;;;;;-0.75;94.44;102140.78;4908582;29;20047;-87
2022/01/22 01:44:00;;;;;;;4.50;1.48;;;;;;;-0.60;94.42;102166.28;4939356;29;20039;-87
2022/01/22 01:46:29;;;;;;;3.35;0.98;;;;;;;-0.63;94.21;102176.19;4939513;29;20092;-87
2022/01/22 01:48:55;;;;;;;2.13;1.02;;;;;;;-0.89;93.99;102133.69;4923947;29;20035;-87
2022/01/22 01:51:24;;;;;;;3.38;1.20;;;;;;;-0.49;93.70;102200.84;4923720;29;20052;-88
2022/01/22 01:54:01;;;;;;;2.15;1.08;;;;;;;-0.60;93.39;102203.28;4940275;29;20024;-86
2022/01/22 01:59:15;;;;;;;2.05;0.90;;;;;;;-0.66;92.59;102186.94;4940085;29;20039;-87
2022/01/22 02:01:41;;;;;;;3.20;1.20;;;;;;;0.21;93.03;102330.63;4939758;29;20033;-87
2022/01/22 02:04:09;;;;;;;2.67;0.90;;;;;;;0.17;92.48;102323.81;4940291;29;20023;-87
2022/01/22 02:06:36;;;;;;;2.53;0.68;;;;;;;-0.64;92.42;102187.72;4924145;29;20123;-87
2022/01/22 02:09:06;;;;;;;1.40;0.95;;;;;;;-0.78;91.97;102189.38;4924019;29;20028;-87
2022/01/22 02:23:30;;;;;;;3.55;1.35;;;;;;;-0.82;92.07;102164.09;5003389;23;20073;-88
2022/01/22 02:25:09;;;;;;;2.15;0.90;;;;;;;0.18;92.42;102325.50;4067708;23;20226;-83
2022/01/22 02:27:35;;;;;;;3.85;1.10;;;;;;;-0.33;92.52;102266.91;5414289;23;20056;-87
2022/01/22 02:30:01;;;;;;;2.13;0.95;;;;;;;-0.49;92.54;102223.81;4924126;29;20008;-87
2022/01/22 02:32:56;;;;;;;3.95;1.02;;;;;;;-0.35;92.01;102265.28;4924134;29;20024;-87
2022/01/22 02:35:29;;;;;;;2.35;1.10;;;;;;;-0.87;91.81;102179.34;4921303;29;20021;-87
2022/01/22 02:38:07;;;;;;;3.72;1.05;;;;;;;-0.73;92.13;102197.03;4923352;29;20011;-87
2022/01/22 02:40:41;;;;;;;4.80;1.25;;;;;;;-0.70;91.46;102191.56;4923823;29;20035;-87
2022/01/22 02:43:09;;;;;;;2.88;0.93;;;;;;;-0.83;91.58;102166.81;4934561;29;20059;-87
2022/01/22 02:45:35;;;;;;;2.67;0.90;;;;;;;-0.91;92.22;102162.00;4905412;29;20096;-88
2022/01/22 02:48:00;;;;;;;1.40;0.70;;;;;;;-0.81;91.76;102175.50;4922045;29;20024;-86
2022/01/22 02:50:26;;;;;;;1.92;0.80;;;;;;;-0.82;92.05;102173.81;4940671;29;20032;-86
2022/01/22 02:52:52;;;;;;;2.15;0.95;;;;;;;0.30;91.90;102337.16;4940822;28;20042;-88
2022/01/22 02:55:18;;;;;;;3.72;0.90;;;;;;;0.31;92.25;102340.66;4924591;29;20020;-87
2022/01/22 02:57:45;;;;;;;1.75;0.80;;;;;;;0.04;91.61;102292.91;4940386;28;20028;-87
2022/01/22 03:00:16;;;;;;;1.75;1.00;;;;;;;-0.14;91.82;102265.75;4924477;29;20039;-87
2022/01/22 03:02:42;;;;;;;2.67;0.90;;;;;;;-0.34;91.80;102248.47;4924360;29;20012;-87
2022/01/22 03:05:08;;;;;;;2.42;0.70;;;;;;;-0.33;91.55;102256.31;4940412;29;20068;-87
2022/01/22 03:07:35;;;;;;;1.65;0.80;;;;;;;-0.55;91.44;102225.03;4940040;29;20009;-87
2022/01/22 03:10:03;;;;;;;2.72;0.80;;;;;;;-0.54;91.26;102224.06;4924455;29;20047;-87
2022/01/22 03:12:48;;;;;;;2.03;1.00;;;;;;;-0.30;91.26;102244.69;4941087;28;20031;-87
2022/01/22 03:18:04;;;;;;;3.17;0.93;;;;;;;-0.05;91.36;102281.09;4944417;29;20092;-87
2022/01/22 03:27:13;;;;;;;2.95;1.00;;;;;;;-0.03;91.63;102268.63;4933202;28;20038;-87
2022/01/22 03:28:42;;;;;;;5.10;1.35;;;;;;;-0.36;91.76;102216.84;4924876;29;20151;-87
2022/01/22 03:31:07;;;;;;;1.63;0.80;;;;;;;-0.22;91.85;102237.16;4925080;29;20075;-88
2022/01/22 03:33:33;;;;;;;3.58;0.57;;;;;;;-0.48;91.42;102176.09;4908196;29;20016;-87
2022/01/22 03:36:05;;;;;;;1.90;0.80;;;;;;;-0.18;91.56;102240.44;4908967;29;20025;-87
2022/01/22 03:38:31;;;;;;;2.08;0.73;;;;;;;-0.27;91.26;102247.13;4909432;29;20016;-87
2022/01/22 03:40:57;;;;;;;3.28;0.80;;;;;;;-0.51;91.20;102196.59;4908374;29;20032;-87
2022/01/22 03:43:23;;;;;;;1.95;1.00;;;;;;;-0.53;90.86;102203.75;4924336;29;20028;-88
2022/01/22 03:45:49;;;;;;;1.50;0.50;;;;;;;0.52;90.60;102372.88;4908606;29;20011;-87
2022/01/22 03:48:14;;;;;;;1.42;0.63;;;;;;;-0.22;90.50;102239.78;4924427;29;20036;-87
2022/01/22 03:50:40;;;;;;;1.45;0.52;;;;;;;-0.47;90.60;102211.31;4925094;29;20008;-88
2022/01/22 03:53:06;;;;;;;2.10;0.60;;;;;;;-0.62;90.73;102180.53;4908842;29;20021;-87
2022/01/22 03:58:01;;;;;;;3.63;0.70;;;;;;;-0.52;90.03;102201.03;4935853;23;20444;-85
2022/01/22 04:26:31;;;;;;;2.13;0.70;;;;;;;-0.17;89.78;102273.88;4941941;28;20056;-86
2022/01/22 04:28:57;;;;;;;3.00;0.70;;;;;;;-0.29;89.85;102241.13;4927027;28;20032;-87
2022/01/22 04:41:29;;;;;;;4.55;0.70;;;;;;;0.23;89.86;102322.56;4942595;29;20022;-87
2022/01/22 04:44:00;;;;;;;2.15;0.98;;;;;;;-0.10;90.20;102268.16;4926173;29;20012;-86
2022/01/22 04:49:10;;;;;;;1.27;0.50;;;;;;;-0.04;90.25;102261.59;4942544;29;20075;-87
2022/01/22 04:55:02;;;;;;;1.30;0.50;;;;;;;0.01;89.86;102264.84;4942519;29;20030;-87
2022/01/22 04:57:09;;;;;;;3.67;0.63;;;;;;;-0.41;89.68;102194.25;4936586;29;20040;-85
2022/01/22 04:59:35;;;;;;;4.75;0.55;;;;;;;-0.24;90.33;102223.16;4925980;29;20016;-87
2022/01/22 05:02:02;;;;;;;3.05;0.60;;;;;;;-0.41;89.89;102184.50;4941881;28;20100;-87
2022/01/22 05:04:28;;;;;;;3.83;0.60;;;;;;;-0.38;89.67;102192.25;4925789;29;20020;-87
2022/01/22 05:06:54;;;;;;;1.42;0.73;;;;;;;0.65;89.34;102372.03;4941946;29;20022;-87
2022/01/22 05:09:19;;;;;;;1.70;0.70;;;;;;;-0.27;89.02;102196.88;4925446;29;20032;-88
2022/01/22 05:11:45;;;;;;;1.98;0.55;;;;;;;-0.22;88.66;102215.13;4925450;29;20032;-88
2022/01/22 05:14:11;;;;;;;1.33;0.47;;;;;;;-0.45;88.42;102172.44;4941155;29;20016;-88
2022/01/22 05:16:37;;;;;;;2.60;0.60;;;;;;;-0.05;88.81;102226.38;4941421;29;20031;-87
2022/01/22 05:19:22;;;;;;;1.40;0.60;;;;;;;-0.09;88.74;102219.56;4924892;29;20103;-87
2022/01/22 05:21:50;;;;;;;0.73;0.50;;;;;;;0.01;88.36;102237.53;4924048;29;20061;-87
2022/01/22 05:24:21;;;;;;;1.88;0.77;;;;;;;-0.47;88.26;102175.16;4941502;29;20020;-86
2022/01/22 05:30:00;;;;;;;1.35;0.40;;;;;;;-0.30;87.75;102197.06;4941478;29;20028;-87
2022/01/22 05:32:31;;;;;;;2.27;0.73;;;;;;;-0.27;88.25;102195.09;4941178;29;20012;-87
2022/01/22 05:37:41;;;;;;;1.17;0.70;;;;;;;0.23;88.09;102288.16;4941720;29;20059;-87
2022/01/22 05:40:08;;;;;;;3.28;0.63;;;;;;;-0.15;87.39;102264.06;4941215;29;20012;-87
2022/01/22 05:42:36;;;;;;;2.25;0.50;;;;;;;-0.62;87.41;102194.63;4940731;29;20028;-87
2022/01/22 05:45:04;;;;;;;1.55;0.45;;;;;;;-0.19;87.52;102258.13;4941681;29;20023;-87
2022/01/22 05:47:30;;;;;;;3.28;0.63;;;;;;;-0.56;87.42;102196.03;4924969;29;20023;-87
2022/01/22 05:49:56;;;;;;;1.35;0.60;;;;;;;-0.55;87.41;102198.56;4924586;29;20020;-87
2022/01/22 05:52:41;;;;;;;1.35;0.70;;;;;;;-0.18;87.27;102262.47;4924862;29;20131;-87
2022/01/22 05:55:40;;;;;;;2.75;0.75;;;;;;;-0.18;87.00;102259.81;5010303;23;20072;-87
2022/01/22 06:00:34;;;;;;;2.05;0.63;;;;;;;-0.02;86.95;102289.69;5049358;23;20060;-87
2022/01/22 06:03:01;;;;;;;1.40;0.50;;;;;;;0.26;86.71;102317.09;4924579;29;20032;-87
2022/01/22 06:05:27;;;;;;;1.95;0.90;;;;;;;0.29;86.79;102321.34;4924751;29;20052;-87
2022/01/22 06:07:53;;;;;;;2.38;0.65;;;;;;;-0.36;86.34;102232.69;5468903;23;20019;-86
2022/01/22 06:17:56;;;;;;;2.35;0.77;;;;;;;-0.30;85.96;102232.34;5657811;23;20071;-86
2022/01/22 06:20:22;;;;;;;2.10;0.50;;;;;;;-0.30;85.66;102234.97;4939643;29;20024;-87
2022/01/22 06:22:47;;;;;;;3.10;0.60;;;;;;;-0.54;85.60;102202.91;4939716;29;20039;-87
2022/01/22 06:25:13;;;;;;;1.85;0.70;;;;;;;-0.54;85.49;102210.84;4939776;29;20045;-87
2022/01/22 06:27:39;;;;;;;1.95;0.60;;;;;;;-0.55;85.95;102209.16;4939572;29;20016;-87
2022/01/22 06:30:05;;;;;;;2.97;0.80;;;;;;;-0.58;85.89;102213.78;4922487;29;20027;-88
2022/01/22 06:32:31;;;;;;;1.85;0.60;;;;;;;-0.34;86.05;102257.25;4923083;29;20039;-87
2022/01/22 06:34:59;;;;;;;0.98;0.50;;;;;;;-0.33;85.48;102258.09;4938835;29;20108;-87
2022/01/22 06:37:25;;;;;;;1.73;0.50;;;;;;;-0.33;85.82;102264.25;4939735;29;20025;-86
2022/01/22 06:42:33;;;;;;;1.48;0.52;;;;;;;-0.85;85.45;102201.28;4931857;29;20064;-87
2022/01/22 06:45:00;;;;;;;4.40;0.80;;;;;;;-0.23;85.71;102293.66;4904538;29;20032;-87
2022/01/22 06:47:29;;;;;;;1.85;0.73;;;;;;;0.29;85.53;102379.59;4920925;29;20040;-87
2022/01/22 06:49:54;;;;;;;1.17;0.45;;;;;;;0.28;85.58;102396.44;4906643;29;20044;-87
2022/01/22 06:52:20;;;;;;;2.22;0.77;;;;;;;0.33;85.46;102419.06;4924141;29;20025;-87
2022/01/22 06:54:47;;;;;;;3.33;0.65;;;;;;;-0.35;85.06;102299.66;4936276;29;20028;-87
2022/01/22 06:57:13;;;;;;;3.25;0.80;;;;;;;-0.77;84.67;102243.09;4927312;29;20036;-86
2022/01/22 06:59:39;;;;;;;4.18;0.80;;;;;;;-0.31;84.73;102319.69;4941887;29;20042;-87
2022/01/22 07:02:06;;;;;;;1.38;0.68;;;;;;;-0.71;84.68;102251.50;4925056;29;20088;-86
2022/01/22 07:04:36;;;;;;;3.20;0.75;;;;;;;-0.49;84.86;102287.28;4920909;29;20056;-85
2022/01/22 07:07:02;;;;;;;3.75;0.82;;;;;;;-0.49;84.57;102282.81;4921655;29;20039;-86
2022/01/22 07:09:28;;;;;;;4.97;0.95;;;;;;;0.38;84.53;102430.19;4923418;29;20028;-86
2022/01/22 07:11:57;;;;;;;3.75;0.80;;;;;;;-0.68;84.20;102239.91;4939120;29;20031;-85
2022/01/22 07:14:23;;;;;;;2.40;0.70;;;;;;;-0.22;83.75;102305.91;4907427;29;20047;-86
2022/01/22 07:16:48;;;;;;;3.72;0.70;;;;;;;-0.50;83.75;102248.53;4922131;29;20031;-85
2022/01/22 07:19:18;;;;;;;1.73;0.60;;;;;;;-0.62;83.83;102220.19;4935689;29;20052;-84
2022/01/22 07:21:47;;;;;;;1.73;0.47;;;;;;;-0.23;83.69;102304.22;4919287;29;20024;-84
2022/01/22 07:24:26;;;;;;;2.08;0.80;;;;;;;-0.18;83.49;102302.13;4919911;29;20035;-85
2022/01/22 07:26:55;;;;;;;2.00;0.88;;;;;;;-0.24;83.37;102290.13;4936259;29;20032;-85
2022/01/22 07:29:22;;;;;;;1.83;0.63;;;;;;;-0.24;83.36;102300.72;4945187;23;20056;-86
2022/01/22 07:31:48;;;;;;;2.47;0.70;;;;;;;0.19;82.86;102358.13;4919664;29;20039;-85
2022/01/22 07:34:13;;;;;;;2.80;0.70;;;;;;;-0.17;82.54;102298.53;4905712;29;20028;-84
2022/01/22 07:36:39;;;;;;;2.60;0.70;;;;;;;-0.44;82.35;102236.75;4920286;29;20525;-84
2022/01/22 07:39:06;;;;;;;1.60;0.63;;;;;;;0.43;82.43;102367.22;4931391;29;20023;-88
2022/01/22 07:41:31;;;;;;;4.43;0.70;;;;;;;-0.52;82.20;102216.06;4921943;29;20024;-86
2022/01/22 07:43:57;;;;;;;0.95;0.50;;;;;;;-0.49;82.01;102200.84;4920816;29;20028;-85
2022/01/22 07:46:23;;;;;;;0.75;0.50;;;;;;;-0.54;81.56;102215.28;4939258;29;20020;-85
2022/01/22 07:48:50;;;;;;;1.48;0.40;;;;;;;-0.78;81.42;102164.75;4938629;29;20035;-85
2022/01/22 07:51:17;;;;;;;4.93;0.60;;;;;;;0.19;81.38;102321.91;4933481;29;20506;-84
2022/01/22 07:53:47;;;;;;;3.60;0.73;;;;;;;-0.38;81.23;102246.94;4931721;29;20048;-85
2022/01/22 07:56:13;;;;;;;1.05;0.38;;;;;;;-0.26;80.93;102257.66;4917426;29;20042;-86
2022/01/22 07:58:39;;;;;;;3.78;0.52;;;;;;;0.61;80.74;102396.16;4943448;29;20043;-86
2022/01/22 08:01:05;;;;;;;3.13;0.60;;;;;;;0.11;80.69;102302.16;4941407;29;20116;-86
2022/01/22 08:03:30;;;;;;;1.58;0.75;;;;;;;-0.08;80.73;102281.28;4920216;29;20028;-85
2022/01/22 08:05:56;;;;;;;3.83;1.80;;;;;;;-0.20;80.70;102255.56;4919810;29;20042;-83
2022/01/22 08:08:21;;;;;;;2.60;0.82;;;;;;;-0.32;80.46;102233.38;4934313;29;20042;-87
2022/01/22 08:10:47;;;;;;;2.00;0.85;;;;;;;0.53;79.94;102379.88;4920458;29;20024;-86
2022/01/22 08:13:21;;;;;;;3.17;1.00;;;;;;;-0.12;79.80;102264.75;4935994;29;20039;-86
2022/01/22 08:15:47;;;;;;;2.60;1.02;;;;;;;-0.17;79.79;102256.22;4920454;29;20048;-85
2022/01/22 08:18:12;;;;;;;2.33;1.05;;;;;;;0.14;80.08;102297.53;4934726;29;20032;-86
2022/01/22 08:20:38;;;;;;;2.78;1.05;;;;;;;0.14;79.47;102294.88;4936596;29;20055;-87
2022/01/22 08:23:03;;;;;;;2.25;1.08;;;;;;;-0.16;79.42;102231.47;4936526;29;20040;-88
2022/01/22 08:25:31;;;;;;;8.07;5.50;;;;;;;0.10;79.38;102277.50;4936087;29;20055;-87
2022/01/22 08:30:45;;;;;;;1.55;0.85;;;;;;;0.34;79.40;102303.41;4936853;29;20108;-87
2022/01/22 08:33:35;;;;;;;1.98;0.77;;;;;;;0.10;79.13;102260.75;4936067;29;20028;-87
2022/01/22 08:36:02;;;;;;;2.90;0.70;;;;;;;-0.25;78.89;102195.00;4938321;29;20042;-87
2022/01/22 08:38:30;;;;;;;1.38;0.50;;;;;;;-0.01;78.85;102227.03;4938830;29;20031;-87
2022/01/22 08:40:57;;;;;;;1.70;0.80;;;;;;;0.83;78.67;102363.84;4946421;29;20024;-87
2022/01/22 08:43:23;;;;;;;3.97;1.08;;;;;;;0.44;78.23;102278.88;4936122;29;20111;-87
2022/01/22 08:45:49;;;;;;;3.30;0.70;;;;;;;0.14;78.30;102236.66;4936701;29;20051;-87
2022/01/22 08:48:19;;;;;;;5.10;1.30;;;;;;;0.53;77.82;102271.28;4935423;29;20048;-87
2022/01/22 08:50:45;;;;;;;2.15;0.80;;;;;;;0.20;78.09;102219.56;4935337;29;20024;-85
2022/01/22 08:53:11;;;;;;;1.92;0.70;;;;;;;0.60;78.01;102293.81;4933933;29;20055;-85
2022/01/22 08:55:36;;;;;;;2.10;0.60;;;;;;;0.34;78.01;102235.41;4936273;29;20454;-84
2022/01/22 08:58:02;;;;;;;3.75;0.85;;;;;;;0.58;77.70;102277.16;4938441;29;20144;-85
2022/01/22 09:00:28;;;;;;;3.58;0.77;;;;;;;0.37;77.93;102245.81;4932868;29;20028;-84
2022/01/22 09:02:53;;;;;;;4.50;1.00;;;;;;;0.75;78.72;102278.72;4935350;29;20047;-85
2022/01/22 09:05:20;;;;;;;2.28;0.70;;;;;;;0.44;78.43;102210.03;4915515;29;20187;-87
2022/01/22 09:07:46;;;;;;;5.80;0.90;;;;;;;1.59;78.67;102390.72;4915767;29;20119;-85
2022/01/22 09:10:13;;;;;;;1.92;0.70;;;;;;;0.61;78.05;102240.72;4884688;29;20117;-86
2022/01/22 09:12:39;;;;;;;1.85;0.68;;;;;;;1.67;78.78;102386.69;4913907;29;20043;-85
2022/01/22 09:15:05;;;;;;;21.95;1.80;;;;;;;1.71;78.77;102386.38;4914390;29;20115;-86
2022/01/22 09:17:31;;;;;;;6.13;1.67;;;;;;;1.26;78.57;102316.00;4915974;29;20084;-86
2022/01/22 09:19:58;;;;;;;3.92;0.70;;;;;;;1.06;78.74;102277.56;4898999;29;20039;-85
2022/01/22 09:22:24;;;;;;;2.00;0.60;;;;;;;1.66;78.23;102369.94;4914691;29;20024;-86
2022/01/22 09:24:51;;;;;;;3.00;0.90;;;;;;;0.62;78.67;102200.03;4931141;29;20090;-86
2022/01/22 09:27:17;;;;;;;5.60;1.17;;;;;;;1.18;78.42;102296.16;4923201;29;20118;-85
2022/01/22 09:29:42;;;;;;;4.28;0.90;;;;;;;1.07;78.91;102272.16;4914837;29;20028;-86
2022/01/22 09:32:08;;;;;;;5.03;0.68;;;;;;;1.07;78.56;102273.97;4914518;29;20034;-85
2022/01/22 09:34:34;;;;;;;6.47;1.75;;;;;;;1.20;78.34;102268.72;4910660;29;20021;-85
2022/01/22 09:36:59;;;;;;;1.85;0.80;;;;;;;1.11;78.75;102271.00;4914810;29;20052;-86
2022/01/22 09:39:25;;;;;;;2.15;0.70;;;;;;;0.87;78.45;102228.44;4912708;29;20044;-86
2022/01/22 09:41:50;;;;;;;6.43;1.20;;;;;;;0.85;78.71;102224.19;4914818;29;20028;-85
2022/01/22 09:44:16;;;;;;;6.40;0.80;;;;;;;0.77;79.01;102192.03;4929785;29;20032;-85
2022/01/22 09:46:43;;;;;;;3.92;1.15;;;;;;;0.98;78.84;102225.06;4928447;29;20063;-86
2022/01/22 09:49:10;;;;;;;3.03;0.90;;;;;;;0.80;79.63;102203.28;4914984;29;20070;-86
2022/01/22 09:51:36;;;;;;;3.28;0.82;;;;;;;1.86;79.44;102377.41;4905048;29;20040;-85
2022/01/22 09:54:02;;;;;;;4.35;1.23;;;;;;;1.91;79.33;102381.53;4913323;29;20040;-86
2022/01/22 09:56:30;;;;;;;6.70;1.10;;;;;;;1.94;79.88;102378.69;4915363;29;20112;-85
2022/01/22 09:58:55;;;;;;;2.63;0.85;;;;;;;1.96;79.78;102382.94;4914170;29;20366;-86
2022/01/22 10:01:30;;;;;;;5.10;1.38;;;;;;;1.90;79.98;102358.63;4900578;29;20172;-87
2022/01/22 10:03:58;;;;;;;2.22;0.75;;;;;;;2.02;80.21;102371.91;4930432;29;20052;-85
2022/01/22 10:06:30;;;;;;;3.95;0.80;;;;;;;2.06;80.37;102372.53;4930791;29;20032;-85
2022/01/22 10:09:11;;;;;;;2.50;0.70;;;;;;;2.03;80.38;102362.13;4914407;29;20083;-85
2022/01/22 10:11:37;;;;;;;3.05;0.70;;;;;;;2.13;80.81;102373.81;4899878;29;20044;-86
2022/01/22 10:14:04;;;;;;;1.80;0.50;;;;;;;2.14;80.42;102379.97;4930348;29;20052;-84
2022/01/22 10:16:30;;;;;;;3.25;0.80;;;;;;;2.11;81.21;102381.88;4901339;29;20034;-86
2022/01/22 10:19:20;;;;;;;1.95;0.63;;;;;;;2.20;80.31;102379.56;4939716;29;20032;-88
2022/01/22 10:21:57;;;;;;;2.15;0.80;;;;;;;2.20;80.71;102371.59;4939653;29;20443;-87
2022/01/22 10:24:40;;;;;;;4.65;0.80;;;;;;;2.26;80.32;102364.03;4922981;29;20015;-87
2022/01/22 10:27:34;;;;;;;5.10;0.98;;;;;;;2.36;80.50;102361.59;4939579;29;20036;-84
2022/01/22 10:30:08;;;;;;;4.80;0.80;;;;;;;2.43;80.39;102365.53;4936556;29;20471;-85
2022/01/22 10:35:08;;;;;;;4.70;1.08;;;;;;;2.47;80.90;102337.78;4934441;29;20032;-87
2022/01/22 10:37:34;;;;;;;5.45;0.90;;;;;;;2.56;80.71;102331.81;4915253;29;20016;-87
2022/01/22 10:40:19;;;;;;;2.70;0.82;;;;;;;2.65;80.96;102332.97;4924192;29;20060;-87
2022/01/22 10:42:44;;;;;;;3.15;0.88;;;;;;;2.67;80.53;102333.69;4934565;29;20036;-86
2022/01/22 10:45:14;;;;;;;3.25;0.85;;;;;;;2.73;81.00;102338.56;4898129;29;20461;-86
2022/01/22 10:47:39;;;;;;;2.55;0.80;;;;;;;2.87;80.71;102358.00;4929859;29;20060;-88
2022/01/22 10:50:22;;;;;;;3.85;1.00;;;;;;;2.88;80.73;102354.38;4906678;29;20111;-86
2022/01/22 10:52:53;;;;;;;5.68;0.95;;;;;;;2.96;80.78;102360.00;4918262;29;20028;-86
2022/01/22 10:55:20;;;;;;;5.30;0.90;;;;;;;2.86;80.93;102337.69;4912223;29;20064;-86
2022/01/22 10:58:06;;;;;;;3.40;1.00;;;;;;;3.04;81.62;102360.28;4928887;29;20028;-85
2022/01/22 11:00:31;;;;;;;4.82;1.00;;;;;;;2.88;81.75;102336.63;4912717;29;20047;-87
2022/01/22 11:02:57;;;;;;;4.28;0.90;;;;;;;3.01;82.20;102365.81;4902490;29;20099;-86
2022/01/22 11:05:38;;;;;;;4.80;1.10;;;;;;;3.04;81.59;102365.59;4901922;29;20112;-87
2022/01/22 11:08:13;;;;;;;3.90;0.90;;;;;;;2.79;81.87;102311.56;4929554;29;20016;-86
2022/01/22 11:10:40;;;;;;;4.65;0.90;;;;;;;3.04;81.44;102349.63;4914207;29;20033;-85
2022/01/22 11:13:06;;;;;;;2.55;0.70;;;;;;;3.12;81.88;102357.91;4917648;29;20056;-87
2022/01/22 11:15:31;;;;;;;5.85;1.10;;;;;;;3.17;81.73;102368.22;4933885;29;20664;-86
2022/01/22 11:17:58;;;;;;;4.38;1.10;;;;;;;3.21;82.09;102373.22;4931837;29;20031;-88
2022/01/22 11:20:25;;;;;;;2.28;0.90;;;;;;;3.28;81.85;102369.13;4928981;29;20037;-87
2022/01/22 11:22:52;;;;;;;5.43;0.90;;;;;;;3.09;82.31;102325.38;4901130;29;20046;-87
2022/01/22 11:25:20;;;;;;;3.08;1.00;;;;;;;3.26;81.82;102331.13;4932373;29;20016;-88
2022/01/22 11:27:47;;;;;;;4.93;1.02;;;;;;;3.43;82.50;102348.50;4934686;29;20048;-88
2022/01/22 11:30:16;;;;;;;4.47;1.00;;;;;;;3.42;82.98;102336.19;4934497;29;20020;-87
2022/01/22 11:33:12;;;;;;;8.38;0.90;;;;;;;3.58;82.83;102351.00;4917768;29;20028;-87
2022/01/22 11:36:01;;;;;;;4.07;0.80;;;;;;;3.57;83.03;102325.31;4916542;29;20035;-84
2022/01/22 11:38:28;;;;;;;5.88;1.17;;;;;;;3.67;83.04;102342.28;4937157;29;20032;-84
2022/01/22 11:41:18;;;;;;;3.83;0.75;;;;;;;3.68;83.38;102336.03;4932097;29;20392;-86
2022/01/22 11:44:32;;;;;;;3.20;0.68;;;;;;;3.80;83.13;102342.22;4927011;29;20060;-84
2022/01/22 11:46:59;;;;;;;3.75;0.73;;;;;;;3.80;82.60;102339.56;4926400;28;20072;-85
2022/01/22 11:49:29;;;;;;;5.10;0.77;;;;;;;3.87;82.39;102343.44;4933461;29;20043;-87
2022/01/22 11:52:07;;;;;;;3.42;0.80;;;;;;;3.86;83.07;102339.09;4922377;29;20044;-86
2022/01/22 11:54:48;;;;;;;2.97;0.75;;;;;;;3.87;83.16;102328.31;4944648;29;20040;-86
2022/01/22 11:57:15;;;;;;;4.65;0.60;;;;;;;3.72;83.21;102303.72;4917386;29;20021;-84
2022/01/22 11:59:43;;;;;;;2.60;0.60;;;;;;;3.81;82.67;102310.16;4919798;29;20039;-82
2022/01/22 12:02:13;;;;;;;1.38;0.50;;;;;;;3.82;82.55;102303.88;4917748;29;20031;-86
2022/01/22 12:04:38;;;;;;;3.72;0.57;;;;;;;3.81;82.71;102304.84;4938396;29;20038;-83
2022/01/22 12:07:03;;;;;;;3.25;0.68;;;;;;;3.93;83.28;102305.69;4937596;29;20028;-86
2022/01/22 12:09:51;;;;;;;3.47;0.70;;;;;;;3.97;82.85;102297.38;4935240;29;20432;-84
2022/01/22 12:15:20;;;;;;;2.45;0.60;;;;;;;4.14;83.21;102308.47;4918661;29;20035;-85
2022/01/22 12:17:50;;;;;;;6.05;0.60;;;;;;;4.18;83.68;102310.81;4919337;29;20031;-83
2022/01/22 12:23:03;;;;;;;2.55;0.63;;;;;;;4.21;83.33;102313.22;4922457;29;20116;-83
2022/01/22 12:25:28;;;;;;;3.08;0.60;;;;;;;4.27;84.33;102327.03;4910975;29;20028;-83
2022/01/22 12:27:55;;;;;;;5.47;0.82;;;;;;;4.29;84.18;102331.28;4911129;29;20077;-85
2022/01/22 12:30:47;;;;;;;5.35;1.13;;;;;;;4.25;83.97;102321.84;4909100;29;20058;-83
2022/01/22 12:33:34;;;;;;;3.83;0.80;;;;;;;4.30;84.83;102332.13;4930934;29;20039;-84
2022/01/22 12:36:05;;;;;;;3.78;1.10;;;;;;;4.35;84.17;102332.63;4932104;29;20067;-85
2022/01/22 12:38:44;;;;;;;3.58;0.70;;;;;;;4.31;84.74;102315.19;4937808;29;20024;-85
2022/01/22 12:41:59;;;;;;;4.10;0.80;;;;;;;4.37;84.74;102325.31;4935620;29;20040;-86
2022/01/22 12:44:04;;;;;;;2.95;0.68;;;;;;;4.47;85.38;102339.66;4914731;29;20048;-87
2022/01/22 12:46:30;;;;;;;3.55;0.93;;;;;;;4.51;85.59;102332.25;4928361;29;20024;-88
2022/01/22 12:48:56;;;;;;;6.22;0.98;;;;;;;4.56;86.64;102338.91;4934099;29;20129;-88
2022/01/22 12:51:25;;;;;;;3.05;0.98;;;;;;;4.47;86.34;102308.50;4928105;29;20024;-89
2022/01/22 12:53:50;;;;;;;8.23;1.48;;;;;;;4.56;86.76;102316.72;4924326;29;20008;-88
2022/01/22 12:59:04;;;;;;;4.13;1.20;;;;;;;4.57;87.82;102332.63;4938766;29;20074;-89
2022/01/22 13:01:31;;;;;;;5.40;1.10;;;;;;;4.47;88.27;102326.31;4919652;29;20020;-88
2022/01/22 13:04:01;;;;;;;6.20;1.30;;;;;;;4.55;88.54;102326.56;4935076;29;20051;-87
2022/01/22 13:06:39;;;;;;;7.82;1.65;;;;;;;4.46;88.88;102325.44;4901100;29;20032;-88
2022/01/22 13:09:05;;;;;;;4.75;1.23;;;;;;;4.47;88.78;102329.84;4925771;29;20048;-88
2022/01/22 13:11:32;;;;;;;5.47;1.50;;;;;;;4.35;89.45;102309.47;4942174;29;20038;-88
2022/01/22 13:13:58;;;;;;;6.35;1.10;;;;;;;4.50;89.80;102335.88;4920066;29;20055;-87
2022/01/22 13:16:24;;;;;;;8.23;1.33;;;;;;;4.45;90.29;102336.25;4942254;29;20024;-86
2022/01/22 13:18:58;;;;;;;7.93;1.27;;;;;;;4.35;90.76;102313.97;4937305;29;20072;-89
2022/01/22 13:21:26;;;;;;;7.05;1.00;;;;;;;4.10;91.32;102267.09;4934435;29;20104;-87
2022/01/22 13:24:05;;;;;;;6.20;1.20;;;;;;;4.19;91.89;102295.66;4930132;29;20107;-87
2022/01/22 13:26:41;;;;;;;3.72;0.93;;;;;;;4.28;92.38;102321.59;4918658;29;20059;-86
2022/01/22 13:29:22;;;;;;;5.53;1.20;;;;;;;4.21;92.65;102326.56;4940377;29;20056;-87
2022/01/22 13:31:59;;;;;;;7.03;1.42;;;;;;;4.21;92.84;102323.06;4911421;29;20036;-88
2022/01/22 13:34:49;;;;;;;3.83;1.08;;;;;;;4.18;93.64;102332.13;4926746;29;20032;-86
2022/01/22 13:40:08;;;;;;;10.80;1.90;;;;;;;4.15;94.82;102320.88;4919470;29;20119;-86
2022/01/22 13:48:27;;;;;;;10.90;2.63;;;;;;;4.15;95.88;102321.72;4934067;29;20084;-86